createdAt,value
2019-01-31T00:00:24.386Z,83.59
2019-01-31T00:03:22.442Z,83.63
2019-01-31T00:06:23.420Z,83.82
2019-01-31T00:09:30.401Z,83.83
2019-01-31T00:12:33.882Z,83.85
2019-01-31T00:15:22.580Z,83.88
2019-01-31T00:18:05.360Z,83.95
2019-01-31T00:20:48.351Z,84.13
2019-01-31T00:24:07.025Z,84.07
2019-01-31T00:27:17.893Z,84.14
2019-01-31T00:30:52.247Z,84.12
2019-01-31T00:33:35.650Z,84.13
2019-01-31T00:37:00.254Z,84.15
2019-01-31T00:40:01.037Z,84.03
2019-01-31T00:43:18.206Z,83.85
2019-01-31T00:46:31.558Z,83.70
2019-01-31T00:49:43.840Z,83.72
2019-01-31T00:52:42.654Z,83.57
2019-01-31T00:55:39.104Z,83.18
2019-01-31T00:58:34.681Z,83.14
2019-01-31T01:01:41.775Z,83.30
2019-01-31T01:04:51.685Z,83.48
2019-01-31T01:08:19.090Z,83.54
2019-01-31T01:11:27.619Z,83.46
2019-01-31T01:14:31.399Z,83.66
2019-01-31T01:17:23.192Z,83.73
2019-01-31T01:20:20.839Z,83.51
2019-01-31T01:23:33.044Z,83.54
2019-01-31T01:26:36.723Z,83.85
2019-01-31T01:29:57.387Z,83.88
2019-01-31T01:33:06.175Z,83.96
2019-01-31T01:36:20.721Z,84.05
2019-01-31T01:39:35.490Z,84.31
2019-01-31T01:42:45.459Z,84.46
2019-01-31T01:45:54.147Z,84.63
2019-01-31T01:49:09.165Z,84.66
2019-01-31T01:52:19.120Z,84.62
2019-01-31T01:55:13.222Z,84.67
2019-01-31T01:57:53.543Z,84.69
2019-01-31T02:00:50.776Z,84.71
2019-01-31T02:03:54.733Z,84.75
2019-01-31T02:06:50.980Z,84.87
2019-01-31T02:09:50.487Z,85.23
2019-01-31T02:12:58.446Z,85.34
2019-01-31T02:16:01.194Z,85.52
2019-01-31T02:18:47.951Z,85.65
2019-01-31T02:21:49.989Z,85.89
2019-01-31T02:24:34.025Z,86.03
2019-01-31T02:27:55.117Z,86.10
2019-01-31T02:31:04.349Z,86.15
2019-01-31T02:34:15.078Z,86.09
2019-01-31T02:37:22.338Z,86.11
2019-01-31T02:40:21.305Z,86.34
2019-01-31T02:43:20.716Z,86.32
2019-01-31T02:46:25.043Z,86.31
2019-01-31T02:49:08.525Z,86.40
2019-01-31T02:52:19.275Z,86.51
2019-01-31T02:55:29.201Z,86.55
2019-01-31T02:58:32.283Z,86.63
2019-01-31T03:01:31.916Z,86.67
2019-01-31T03:04:48.804Z,86.86
2019-01-31T03:08:10.340Z,86.85
2019-01-31T03:11:40.662Z,86.89
2019-01-31T03:14:36.812Z,86.77
2019-01-31T03:17:44.756Z,87.06
2019-01-31T03:20:32.817Z,87.06
2019-01-31T03:23:27.832Z,87.16
2019-01-31T03:26:40.017Z,87.33
2019-01-31T03:30:18.309Z,87.39
2019-01-31T03:33:23.158Z,87.44
2019-01-31T03:36:33.723Z,87.50
2019-01-31T03:39:39.173Z,87.88
2019-01-31T03:42:19.153Z,87.93
2019-01-31T03:45:44.029Z,87.96
2019-01-31T03:48:49.720Z,88.02
2019-01-31T03:51:59.606Z,87.96
2019-01-31T03:55:01.900Z,87.96
2019-01-31T03:58:08.814Z,88.07
2019-01-31T04:00:58.717Z,88.07
2019-01-31T04:03:34.872Z,88.18
2019-01-31T04:06:23.848Z,88.38
2019-01-31T04:08:55.334Z,88.38
2019-01-31T04:11:27.067Z,88.45
2019-01-31T04:13:58.469Z,88.49
2019-01-31T04:16:30.320Z,88.65
2019-01-31T04:19:01.895Z,88.56
2019-01-31T04:21:33.742Z,88.61
2019-01-31T04:24:05.421Z,88.64
2019-01-31T04:26:36.974Z,88.84
2019-01-31T04:29:08.797Z,88.81
2019-01-31T04:31:41.026Z,88.84
2019-01-31T04:34:12.886Z,88.78
2019-01-31T04:36:46.799Z,88.89
2019-01-31T04:39:18.956Z,88.88
2019-01-31T04:41:53.813Z,88.91
2019-01-31T04:44:25.109Z,88.85
2019-01-31T04:46:56.449Z,88.96
2019-01-31T04:49:28.456Z,89.06
2019-01-31T04:52:01.706Z,89.04
2019-01-31T04:54:33.778Z,89.03
2019-01-31T04:57:05.494Z,89.06
2019-01-31T04:59:37.451Z,88.94
2019-01-31T05:02:09.149Z,88.97
2019-01-31T05:04:42.985Z,89.02
2019-01-31T05:07:14.591Z,89.22
2019-01-31T05:09:46.759Z,89.11
2019-01-31T05:12:18.008Z,89.43
2019-01-31T05:14:50.068Z,89.58
2019-01-31T05:17:22.623Z,89.65
2019-01-31T05:19:55.146Z,89.83
2019-01-31T05:22:29.792Z,90.19
2019-01-31T05:25:03.381Z,90.20
2019-01-31T05:27:35.385Z,90.07
2019-01-31T05:30:07.313Z,89.65
2019-01-31T05:32:38.470Z,89.39
2019-01-31T05:35:10.189Z,89.36
2019-01-31T05:37:41.570Z,89.18
2019-01-31T05:40:14.782Z,89.40
2019-01-31T05:42:45.975Z,89.44
2019-01-31T05:45:17.433Z,89.52
2019-01-31T05:47:48.760Z,89.20
2019-01-31T05:50:20.106Z,89.07
2019-01-31T05:52:51.533Z,88.87
2019-01-31T05:55:23.051Z,88.84
2019-01-31T05:57:57.916Z,88.89
2019-01-31T06:00:32.347Z,88.92
2019-01-31T06:03:04.041Z,88.92
2019-01-31T06:05:35.305Z,89.05
2019-01-31T06:08:06.798Z,89.17
2019-01-31T06:10:39.605Z,89.14
2019-01-31T06:13:10.710Z,89.20
2019-01-31T06:15:42.760Z,89.17
2019-01-31T06:18:15.531Z,89.18
2019-01-31T06:20:46.655Z,89.21
2019-01-31T06:23:17.737Z,89.15
2019-01-31T06:25:54.598Z,89.29
2019-01-31T06:28:26.962Z,89.26
2019-01-31T06:30:58.825Z,89.27
2019-01-31T06:33:33.312Z,89.40
2019-01-31T06:36:04.783Z,89.36
2019-01-31T06:38:37.742Z,89.41
2019-01-31T06:41:18.288Z,89.42
2019-01-31T06:43:42.403Z,89.45
2019-01-31T06:46:13.730Z,89.62
2019-01-31T06:48:46.493Z,89.47
2019-01-31T06:51:17.462Z,89.68
2019-01-31T06:53:50.948Z,89.59
2019-01-31T06:56:25.913Z,89.70
2019-01-31T06:58:59.261Z,89.75
2019-01-31T07:01:32.256Z,89.75
2019-01-31T07:04:07.387Z,89.70
2019-01-31T07:06:41.310Z,89.64
2019-01-31T07:09:16.340Z,89.62
2019-01-31T07:11:49.402Z,89.50
2019-01-31T07:14:20.919Z,89.39
2019-01-31T07:16:54.341Z,89.55
2019-01-31T07:19:28.095Z,89.46
2019-01-31T07:22:03.547Z,89.27
2019-01-31T07:24:35.716Z,89.39
2019-01-31T07:27:08.973Z,89.48
2019-01-31T07:29:42.087Z,89.59
2019-01-31T07:32:15.843Z,89.52
2019-01-31T07:34:47.976Z,89.57
2019-01-31T07:37:22.117Z,89.37
2019-01-31T07:39:54.771Z,89.19
2019-01-31T07:42:27.140Z,89.00
2019-01-31T07:44:59.223Z,88.88
2019-01-31T07:47:32.961Z,88.84
2019-01-31T07:50:10.588Z,88.30
2019-01-31T07:52:44.518Z,88.60
2019-01-31T07:55:16.871Z,88.38
2019-01-31T07:57:48.431Z,88.29
2019-01-31T08:00:23.909Z,88.13
2019-01-31T08:02:57.211Z,87.77
2019-01-31T08:05:28.294Z,87.70
2019-01-31T08:08:02.594Z,87.27
2019-01-31T08:10:37.755Z,87.21
2019-01-31T08:13:08.822Z,86.97
2019-01-31T08:15:41.371Z,86.21
2019-01-31T08:18:15.570Z,86.04
2019-01-31T08:20:47.793Z,85.98
2019-01-31T08:23:20.379Z,85.13
2019-01-31T08:25:51.481Z,83.74
2019-01-31T08:28:26.220Z,83.07
2019-01-31T08:30:59.310Z,83.44
2019-01-31T08:33:30.434Z,83.47
2019-01-31T08:36:01.614Z,82.92
2019-01-31T08:38:32.918Z,82.04
2019-01-31T08:41:05.156Z,81.43
2019-01-31T08:43:37.604Z,80.97
2019-01-31T08:46:09.293Z,81.35
2019-01-31T08:48:41.637Z,80.69
2019-01-31T08:51:12.782Z,80.32
2019-01-31T08:53:43.857Z,80.81
2019-01-31T08:56:16.921Z,80.87
2019-01-31T08:58:51.852Z,80.71
2019-01-31T09:01:24.752Z,80.10
2019-01-31T09:03:58.499Z,80.21
2019-01-31T09:06:31.953Z,80.12
2019-01-31T09:09:06.189Z,79.90
2019-01-31T09:11:37.742Z,79.72
2019-01-31T09:14:09.009Z,80.07
2019-01-31T09:16:44.809Z,79.96
2019-01-31T09:19:17.512Z,79.74
2019-01-31T09:22:11.879Z,80.53
2019-01-31T09:25:29.468Z,80.14
2019-01-31T09:28:34.890Z,80.52
2019-01-31T09:31:43.610Z,80.64
2019-01-31T09:34:43.756Z,80.71
2019-01-31T09:37:32.964Z,80.93
2019-01-31T09:40:51.371Z,80.91
2019-01-31T09:44:05.191Z,80.75
2019-01-31T09:46:50.559Z,80.38
2019-01-31T09:50:06.029Z,80.06
2019-01-31T09:52:59.770Z,80.02
2019-01-31T09:56:43.744Z,79.69
2019-01-31T09:59:32.621Z,79.61
2019-01-31T10:02:35.525Z,79.50
2019-01-31T10:05:33.993Z,79.04
2019-01-31T10:08:48.149Z,78.71
2019-01-31T10:11:51.229Z,78.64
2019-01-31T10:14:59.430Z,78.46
2019-01-31T10:18:23.927Z,78.36
2019-01-31T10:21:39.289Z,78.61
2019-01-31T10:24:41.329Z,78.16
2019-01-31T10:27:49.721Z,78.39
2019-01-31T10:31:12.940Z,77.75
2019-01-31T10:34:22.757Z,77.72
2019-01-31T10:37:36.784Z,77.25
2019-01-31T10:40:55.497Z,76.87
2019-01-31T10:43:45.690Z,77.13
2019-01-31T10:47:04.939Z,76.58
2019-01-31T10:50:22.755Z,76.54
2019-01-31T10:53:21.363Z,76.17
2019-01-31T10:56:52.738Z,75.53
2019-01-31T11:00:03.012Z,75.55
2019-01-31T11:03:20.261Z,75.21
2019-01-31T11:06:30.131Z,74.95
2019-01-31T11:09:42.539Z,74.46
2019-01-31T11:13:09.684Z,75.04
2019-01-31T11:16:18.846Z,74.54
2019-01-31T11:19:20.508Z,74.56
2019-01-31T11:22:43.243Z,74.39
2019-01-31T11:25:53.099Z,74.15
2019-01-31T11:29:07.899Z,74.08
2019-01-31T11:32:21.914Z,74.05
2019-01-31T11:35:50.725Z,74.20
2019-01-31T11:39:15.820Z,74.15
2019-01-31T11:41:59.913Z,74.01
2019-01-31T11:45:24.532Z,73.46
2019-01-31T11:48:51.773Z,73.50
2019-01-31T11:52:16.999Z,73.13
2019-01-31T11:55:10.082Z,72.58
2019-01-31T11:58:26.511Z,72.12
2019-01-31T12:01:01.244Z,71.96
2019-01-31T12:03:35.937Z,71.48
2019-01-31T12:06:07.455Z,71.85
2019-01-31T12:08:40.733Z,72.26
2019-01-31T12:11:11.845Z,72.49
2019-01-31T12:13:45.517Z,72.71
2019-01-31T12:16:17.556Z,72.43
2019-01-31T12:18:48.544Z,72.06
2019-01-31T12:21:19.965Z,71.43
2019-01-31T12:23:51.923Z,70.94
2019-01-31T12:26:25.139Z,70.68
2019-01-31T12:28:56.118Z,70.56
2019-01-31T12:31:27.952Z,69.49
2019-01-31T12:34:00.086Z,68.06
2019-01-31T12:36:32.750Z,66.85
2019-01-31T12:39:05.709Z,65.99
2019-01-31T12:41:36.720Z,65.88
2019-01-31T12:44:09.197Z,65.50
2019-01-31T12:46:42.772Z,66.03
2019-01-31T12:49:16.270Z,65.81
2019-01-31T12:51:49.260Z,65.17
2019-01-31T12:54:20.246Z,65.43
2019-01-31T12:56:52.553Z,65.62
2019-01-31T12:59:26.356Z,66.63
2019-01-31T13:02:01.008Z,66.75
2019-01-31T13:04:40.539Z,66.86
2019-01-31T13:07:13.470Z,67.24
2019-01-31T13:09:44.964Z,67.98
2019-01-31T13:12:20.800Z,68.74
2019-01-31T13:14:56.682Z,68.94
2019-01-31T13:17:30.282Z,68.35
2019-01-31T13:20:01.359Z,68.33
2019-01-31T13:22:34.798Z,67.19
2019-01-31T13:25:08.985Z,66.94
2019-01-31T13:27:41.234Z,66.21
2019-01-31T13:30:20.117Z,66.10
2019-01-31T13:33:03.012Z,65.46
2019-01-31T13:35:34.074Z,65.52
2019-01-31T13:38:10.057Z,65.44
2019-01-31T13:40:42.269Z,64.73
2019-01-31T13:43:13.553Z,64.90
2019-01-31T13:45:45.772Z,65.02
2019-01-31T13:48:19.384Z,64.92
2019-01-31T13:50:54.790Z,65.25
2019-01-31T13:53:31.036Z,65.21
2019-01-31T13:56:02.370Z,65.92
2019-01-31T13:58:35.834Z,65.96
2019-01-31T14:01:09.167Z,65.62
2019-01-31T14:03:40.469Z,65.73
2019-01-31T14:06:13.061Z,65.61
2019-01-31T14:08:44.773Z,65.88
2019-01-31T14:11:15.842Z,66.20
2019-01-31T14:13:50.294Z,66.16
2019-01-31T14:16:23.038Z,66.14
2019-01-31T14:18:59.562Z,66.79
2019-01-31T14:21:34.781Z,66.34
2019-01-31T14:24:06.906Z,66.81
2019-01-31T14:26:41.065Z,66.48
2019-01-31T14:29:17.158Z,66.74
2019-01-31T14:31:50.166Z,67.00
2019-01-31T14:34:23.667Z,67.38
2019-01-31T14:36:54.678Z,67.95
2019-01-31T14:39:27.938Z,68.65
2019-01-31T14:41:59.426Z,68.64
2019-01-31T14:44:31.949Z,68.86
2019-01-31T14:47:08.287Z,69.39
2019-01-31T14:49:39.847Z,69.52
2019-01-31T14:52:16.104Z,69.67
2019-01-31T14:54:52.604Z,69.96
2019-01-31T14:57:25.363Z,70.72
2019-01-31T14:59:56.899Z,70.68
2019-01-31T15:02:30.516Z,70.77
2019-01-31T15:05:04.419Z,70.77
2019-01-31T15:07:36.659Z,70.14
2019-01-31T15:10:12.294Z,70.21
2019-01-31T15:12:43.272Z,70.21
2019-01-31T15:15:17.200Z,70.16
2019-01-31T15:17:53.002Z,70.44
2019-01-31T15:20:38.061Z,70.71
2019-01-31T15:23:07.418Z,70.94
2019-01-31T15:25:40.831Z,71.21
2019-01-31T15:28:11.937Z,71.44
2019-01-31T15:30:43.009Z,71.67
2019-01-31T15:33:15.112Z,71.56
2019-01-31T15:35:46.157Z,71.61
2019-01-31T15:38:18.952Z,71.99
2019-01-31T15:40:50.533Z,72.37
2019-01-31T15:43:22.349Z,72.78
2019-01-31T15:45:54.717Z,73.13
2019-01-31T15:48:26.185Z,74.04
2019-01-31T15:50:58.029Z,74.54
2019-01-31T15:53:29.387Z,74.92
2019-01-31T15:56:03.066Z,75.32
2019-01-31T15:58:34.458Z,75.53
2019-01-31T16:01:07.590Z,75.66
2019-01-31T16:03:38.906Z,75.97
2019-01-31T16:06:10.181Z,76.79
2019-01-31T16:08:41.384Z,77.10
2019-01-31T16:11:12.581Z,77.19
2019-01-31T16:13:43.929Z,77.40
2019-01-31T16:16:15.818Z,77.68
2019-01-31T16:18:46.990Z,78.03
2019-01-31T16:21:19.704Z,78.70
2019-01-31T16:23:50.773Z,78.98
2019-01-31T16:26:21.992Z,79.10
2019-01-31T16:28:54.629Z,79.05
2019-01-31T16:31:25.860Z,79.36
2019-01-31T16:33:56.965Z,79.67
2019-01-31T16:36:28.176Z,79.71
2019-01-31T16:38:59.756Z,79.90
2019-01-31T16:41:31.063Z,80.26
2019-01-31T16:44:03.014Z,80.38
2019-01-31T16:46:36.333Z,80.47
2019-01-31T16:49:06.920Z,80.49
2019-01-31T16:51:38.004Z,80.56
2019-01-31T16:54:09.679Z,80.86
2019-01-31T16:56:41.108Z,80.96
2019-01-31T16:59:12.430Z,81.30
2019-01-31T17:01:43.651Z,81.54
2019-01-31T17:04:16.511Z,81.71
2019-01-31T17:06:48.091Z,81.87
2019-01-31T17:09:19.261Z,81.97
2019-01-31T17:11:50.378Z,82.16
2019-01-31T17:14:21.471Z,82.58
2019-01-31T17:16:54.187Z,82.68
2019-01-31T17:19:25.337Z,82.96
2019-01-31T17:21:56.526Z,83.14
2019-01-31T17:24:28.164Z,83.24
2019-01-31T17:26:59.414Z,83.31
2019-01-31T17:29:30.591Z,83.51
2019-01-31T17:32:01.931Z,83.60
2019-01-31T17:34:33.031Z,83.96
2019-01-31T17:37:04.257Z,84.17
2019-01-31T17:39:35.535Z,84.32
2019-01-31T17:42:06.873Z,84.63
2019-01-31T17:44:38.093Z,84.53
2019-01-31T17:47:09.212Z,84.81
2019-01-31T17:49:40.471Z,84.95
2019-01-31T17:52:12.003Z,84.87
2019-01-31T17:54:43.132Z,84.99
2019-01-31T17:57:14.385Z,85.09
2019-01-31T17:59:45.660Z,85.14
2019-01-31T18:02:19.089Z,85.05
2019-01-31T18:04:50.503Z,85.19
2019-01-31T18:07:22.795Z,85.49
2019-01-31T18:09:54.144Z,86.11
2019-01-31T18:12:25.523Z,86.55
2019-01-31T18:14:57.754Z,86.74
2019-01-31T18:17:30.166Z,86.84
2019-01-31T18:20:04.042Z,87.38
2019-01-31T18:22:37.818Z,87.97
2019-01-31T18:25:10.556Z,88.29
2019-01-31T18:27:42.598Z,88.43
2019-01-31T18:30:20.305Z,88.30
2019-01-31T18:32:52.044Z,88.10
2019-01-31T18:35:23.649Z,88.00
2019-01-31T18:37:55.422Z,88.13
2019-01-31T18:40:28.736Z,88.10
2019-01-31T18:43:00.017Z,88.27
2019-01-31T18:45:32.233Z,88.30
2019-01-31T18:48:03.767Z,88.33
2019-01-31T18:50:37.999Z,88.46
2019-01-31T18:53:09.289Z,88.48
2019-01-31T18:55:40.876Z,88.54
2019-01-31T18:58:11.958Z,88.46
2019-01-31T19:00:50.730Z,88.36
2019-01-31T19:03:23.999Z,88.29
2019-01-31T19:05:55.283Z,88.27
2019-01-31T19:08:26.426Z,88.33
2019-01-31T19:10:57.768Z,88.31
2019-01-31T19:13:28.857Z,88.15
2019-01-31T19:16:05.141Z,88.11
2019-01-31T19:18:33.647Z,88.04
2019-01-31T19:21:05.210Z,87.97
2019-01-31T19:23:36.646Z,88.22
2019-01-31T19:26:07.937Z,88.18
2019-01-31T19:28:39.408Z,88.29
2019-01-31T19:31:10.642Z,88.20
2019-01-31T19:33:41.867Z,88.19
2019-01-31T19:36:12.966Z,88.30
2019-01-31T19:38:44.228Z,88.25
2019-01-31T19:41:15.415Z,88.14
2019-01-31T19:43:46.877Z,88.13
2019-01-31T19:46:18.516Z,88.12
2019-01-31T19:48:49.712Z,88.27
2019-01-31T19:51:20.849Z,88.22
2019-01-31T19:53:51.994Z,88.21
2019-01-31T19:56:23.283Z,88.17
2019-01-31T19:58:54.915Z,88.13
2019-01-31T20:01:27.712Z,88.17
2019-01-31T20:03:58.721Z,88.17
2019-01-31T20:06:29.887Z,88.17
2019-01-31T20:09:01.015Z,88.58
2019-01-31T20:11:33.389Z,88.58
2019-01-31T20:14:04.536Z,88.61
2019-01-31T20:16:36.126Z,88.59
2019-01-31T20:19:08.114Z,88.63
2019-01-31T20:21:39.750Z,88.70
2019-01-31T20:24:10.811Z,88.75
2019-01-31T20:26:41.991Z,88.74
2019-01-31T20:29:13.095Z,88.71
2019-01-31T20:31:45.245Z,88.71
2019-01-31T20:34:16.319Z,88.73
2019-01-31T20:36:47.454Z,88.70
2019-01-31T20:39:18.816Z,88.66
2019-01-31T20:41:54.166Z,88.70
2019-01-31T20:44:22.688Z,88.95
2019-01-31T20:46:53.833Z,88.87
2019-01-31T20:49:24.925Z,89.03
2019-01-31T20:51:56.122Z,89.30
2019-01-31T20:54:27.178Z,89.34
2019-01-31T20:56:58.312Z,89.30
2019-01-31T20:59:29.372Z,89.38
2019-01-31T21:02:00.822Z,89.34
2019-01-31T21:04:32.912Z,89.55
2019-01-31T21:07:04.119Z,89.73
2019-01-31T21:09:35.295Z,89.71
2019-01-31T21:12:06.972Z,89.62
2019-01-31T21:14:38.066Z,89.61
2019-01-31T21:17:09.328Z,89.83
2019-01-31T21:19:40.692Z,89.84
2019-01-31T21:22:11.815Z,89.79
2019-01-31T21:24:42.991Z,90.04
2019-01-31T21:27:14.077Z,90.03
2019-01-31T21:29:45.240Z,90.10
2019-01-31T21:32:16.409Z,90.14
2019-01-31T21:34:47.518Z,90.07
2019-01-31T21:37:18.582Z,90.04
2019-01-31T21:39:49.908Z,90.07
2019-01-31T21:42:20.971Z,90.07
2019-01-31T21:44:53.481Z,90.11
2019-01-31T21:47:24.612Z,90.26
2019-01-31T21:49:55.851Z,90.19
2019-01-31T21:52:27.026Z,90.21
2019-01-31T21:54:58.184Z,90.43
2019-01-31T21:57:29.364Z,90.46
2019-01-31T22:00:00.459Z,90.53
2019-01-31T22:02:31.787Z,90.58
2019-01-31T22:05:02.919Z,90.69
2019-01-31T22:07:35.207Z,90.34
2019-01-31T22:10:07.805Z,90.26
2019-01-31T22:18:17.932Z,88.26
2019-01-31T22:20:49.804Z,88.07
2019-01-31T22:23:21.154Z,87.83
2019-01-31T22:25:52.379Z,87.43
2019-01-31T22:28:24.219Z,87.26
2019-01-31T22:30:55.507Z,87.06
2019-01-31T22:33:26.989Z,86.78
2019-01-31T22:35:59.518Z,86.60
2019-01-31T22:38:30.814Z,86.47
2019-01-31T22:41:02.060Z,86.26
2019-01-31T22:43:33.352Z,86.11
2019-01-31T22:46:04.674Z,85.97
2019-01-31T22:48:35.816Z,85.82
2019-01-31T22:51:07.111Z,85.65
2019-01-31T22:53:39.135Z,85.56
2019-01-31T22:56:10.891Z,85.48
2019-01-31T22:58:42.423Z,85.41
2019-01-31T23:02:03.289Z,85.34
2019-01-31T23:04:34.483Z,85.34
2019-01-31T23:07:06.256Z,85.32
2019-01-31T23:09:38.997Z,85.53
2019-01-31T23:12:10.309Z,85.59
2019-01-31T23:14:42.938Z,85.61
2019-01-31T23:17:13.931Z,85.61
2019-01-31T23:19:45.313Z,85.76
2019-01-31T23:22:16.703Z,85.80
2019-01-31T23:24:48.135Z,85.74
2019-01-31T23:27:19.455Z,85.81
2019-01-31T23:29:51.620Z,85.80
2019-01-31T23:32:23.522Z,85.88
2019-01-31T23:34:54.728Z,85.85
2019-01-31T23:37:26.529Z,85.87
2019-01-31T23:39:59.283Z,85.94
2019-01-31T23:42:30.573Z,85.98
2019-01-31T23:45:01.957Z,86.02
2019-01-31T23:47:33.299Z,86.08
2019-01-31T23:50:07.320Z,86.19
2019-01-31T23:52:38.872Z,86.30
2019-01-31T23:55:10.196Z,86.29
2019-01-31T23:57:41.356Z,86.49
